Time;durP1;ratioP1;P1;durP2;ratioP2;P2;SDS_P1;SDS_P2;PMS_P1;PMS_P2;Temp;Humidity;BMP_temperature;BMP_pressure;BME280_temperature;BME280_humidity;BME280_pressure;Samples;Min_cycle;Max_cycle;Signal;HPM_P1;HPM_P2
2023/05/06 00:00:52;;;;;;;5.93;5.43;;;17.00;99.90;;;;;;5012871;28;20218;-73
2023/05/06 00:03:18;;;;;;;6.13;5.53;;;17.00;99.90;;;;;;5009793;28;20559;-73
2023/05/06 00:05:45;;;;;;;5.17;4.77;;;17.10;99.90;;;;;;5013139;28;20295;-73
2023/05/06 00:08:10;;;;;;;4.47;4.07;;;17.10;99.90;;;;;;5013328;28;20399;-74
2023/05/06 00:10:36;;;;;;;4.47;4.07;;;17.10;99.90;;;;;;5013829;28;20431;-73
2023/05/06 00:13:03;;;;;;;4.87;4.37;;;16.90;99.90;;;;;;5014094;28;20195;-73
2023/05/06 00:15:29;;;;;;;5.40;4.37;;;16.80;99.90;;;;;;5012344;28;20174;-74
2023/05/06 00:17:54;;;;;;;5.60;3.40;;;16.80;99.90;;;;;;4997545;28;20409;-74
2023/05/06 00:20:20;;;;;;;3.60;2.97;;;16.80;99.90;;;;;;5014165;28;20232;-74
2023/05/06 00:22:46;;;;;;;4.00;3.60;;;16.80;99.90;;;;;;5012671;28;20203;-74
2023/05/06 00:25:11;;;;;;;4.63;3.50;;;16.80;99.90;;;;;;5012463;28;20458;-73
2023/05/06 00:27:37;;;;;;;3.10;2.90;;;16.70;99.90;;;;;;5012898;28;20201;-73
2023/05/06 00:30:04;;;;;;;3.70;3.40;;;16.60;99.90;;;;;;5012163;28;20173;-73
2023/05/06 00:32:29;;;;;;;9.20;3.33;;;16.50;99.90;;;;;;4994889;28;20518;-74
2023/05/06 00:34:55;;;;;;;3.73;3.20;;;16.40;99.90;;;;;;5013235;28;20492;-73
2023/05/06 00:37:20;;;;;;;2.93;2.60;;;16.30;99.90;;;;;;5012720;28;20170;-74
2023/05/06 00:39:46;;;;;;;4.60;2.67;;;16.30;99.90;;;;;;5012635;28;20220;-73
2023/05/06 00:42:12;;;;;;;3.63;2.80;;;16.20;99.90;;;;;;5012163;28;20190;-74
2023/05/06 00:44:37;;;;;;;2.90;2.70;;;16.20;99.90;;;;;;4995649;28;20253;-74
2023/05/06 00:47:03;;;;;;;4.87;2.80;;;16.20;99.90;;;;;;5016080;28;20167;-74
2023/05/06 00:49:29;;;;;;;4.43;2.90;;;16.20;99.90;;;;;;5016003;28;20167;-73
2023/05/06 00:51:57;;;;;;;4.10;3.10;;;16.20;99.90;;;;;;5015938;28;20505;-74
2023/05/06 00:54:25;;;;;;;3.63;2.60;;;16.20;99.90;;;;;;5015917;28;20411;-73
2023/05/06 00:56:51;;;;;;;2.57;2.37;;;16.10;99.90;;;;;;5015829;28;20757;-74
2023/05/06 00:59:16;;;;;;;2.90;2.50;;;16.00;99.90;;;;;;5015750;28;20475;-73
2023/05/06 01:01:42;;;;;;;2.80;2.47;;;16.00;99.90;;;;;;5043240;23;20222;-71
2023/05/06 01:04:08;;;;;;;3.07;2.77;;;15.80;99.90;;;;;;5035820;28;20655;-71
2023/05/06 01:06:44;;;;;;;3.10;2.63;;;15.80;99.90;;;;;;5035683;28;20671;-71
2023/05/06 01:09:23;;;;;;;3.50;2.90;;;15.70;99.90;;;;;;5035791;28;20199;-71
2023/05/06 01:12:15;;;;;;;3.00;2.80;;;15.80;99.90;;;;;;5035852;28;20847;-71
2023/05/06 01:15:07;;;;;;;2.83;2.53;;;15.80;99.90;;;;;;5008576;28;20430;-71
2023/05/06 01:17:37;;;;;;;4.27;2.70;;;15.70;99.90;;;;;;5015813;28;20888;-71
2023/05/06 01:20:06;;;;;;;3.67;3.00;;;15.60;99.90;;;;;;5016064;28;20392;-70
2023/05/06 01:22:35;;;;;;;3.40;3.10;;;15.60;99.90;;;;;;5015752;28;20452;-70
2023/05/06 01:25:00;;;;;;;3.30;3.10;;;15.70;99.90;;;;;;5016170;28;20409;-70
2023/05/06 01:27:27;;;;;;;5.57;2.77;;;15.60;99.90;;;;;;5016313;28;20410;-70
2023/05/06 01:29:53;;;;;;;4.40;3.13;;;15.80;99.90;;;;;;5015386;28;20563;-70
2023/05/06 01:32:27;;;;;;;3.43;2.80;;;15.80;99.90;;;;;;5015516;28;20976;-70
2023/05/06 01:35:13;;;;;;;3.13;2.30;;;15.70;99.90;;;;;;5015880;28;20887;-70
2023/05/06 01:37:54;;;;;;;5.37;3.60;;;15.70;99.90;;;;;;5015999;28;20394;-70
2023/05/06 01:40:23;;;;;;;3.23;2.93;;;15.70;99.90;;;;;;5015675;28;20386;-70
2023/05/06 01:42:49;;;;;;;3.83;3.23;;;15.70;99.90;;;;;;5014284;28;20460;-70
2023/05/06 01:45:18;;;;;;;3.37;3.07;;;15.60;99.90;;;;;;4997157;28;20430;-70
2023/05/06 01:47:45;;;;;;;4.97;3.17;;;15.60;99.90;;;;;;5015177;28;20185;-72
2023/05/06 01:50:11;;;;;;;2.97;2.47;;;15.60;99.90;;;;;;5015171;28;20489;-70
2023/05/06 01:52:36;;;;;;;5.13;2.73;;;15.40;99.90;;;;;;5014989;28;20456;-71
2023/05/06 01:55:02;;;;;;;5.30;2.50;;;15.60;99.90;;;;;;5014992;28;20254;-71
2023/05/06 01:57:28;;;;;;;3.07;2.60;;;15.60;99.90;;;;;;5014149;28;20540;-71
2023/05/06 01:59:54;;;;;;;3.87;2.77;;;15.60;99.90;;;;;;4995276;28;20428;-69
2023/05/06 02:02:19;;;;;;;2.83;2.60;;;15.60;99.90;;;;;;5014739;28;20209;-70
2023/05/06 02:04:45;;;;;;;7.13;2.93;;;15.70;99.90;;;;;;5015696;28;20169;-70
2023/05/06 02:07:10;;;;;;;3.60;2.60;;;15.70;99.90;;;;;;5015161;28;20170;-70
2023/05/06 02:09:36;;;;;;;12.50;3.53;;;15.70;99.90;;;;;;5011715;28;20186;-71
2023/05/06 02:12:02;;;;;;;3.40;2.70;;;15.70;99.90;;;;;;5014888;28;20199;-71
2023/05/06 02:14:27;;;;;;;5.40;2.57;;;15.60;99.90;;;;;;5014325;28;20214;-70
2023/05/06 02:16:54;;;;;;;3.27;2.77;;;15.60;99.90;;;;;;5014590;28;20174;-71
2023/05/06 02:19:20;;;;;;;4.20;2.53;;;15.70;99.90;;;;;;5012419;28;20177;-71
2023/05/06 02:21:45;;;;;;;3.33;2.83;;;15.60;99.90;;;;;;5014680;28;20430;-71
2023/05/06 02:24:11;;;;;;;5.30;2.70;;;15.70;99.90;;;;;;5014453;28;20221;-71
2023/05/06 02:26:36;;;;;;;3.27;2.43;;;15.60;99.90;;;;;;5014505;28;20175;-71
2023/05/06 02:29:02;;;;;;;3.20;2.90;;;15.60;99.90;;;;;;5014043;28;20178;-70
2023/05/06 02:31:27;;;;;;;3.20;2.70;;;15.60;99.90;;;;;;5014308;28;20199;-70
2023/05/06 02:33:53;;;;;;;3.40;2.60;;;15.60;99.90;;;;;;5014946;28;20172;-71
2023/05/06 02:36:19;;;;;;;4.30;2.47;;;15.60;99.90;;;;;;5014544;28;20256;-70
2023/05/06 02:38:44;;;;;;;4.27;3.10;;;15.60;99.90;;;;;;4996694;28;20232;-71
2023/05/06 02:41:10;;;;;;;3.83;2.80;;;15.60;99.90;;;;;;5014134;28;20638;-71
2023/05/06 02:43:35;;;;;;;3.70;2.67;;;15.60;99.90;;;;;;5013603;28;20596;-69
2023/05/06 02:46:01;;;;;;;3.43;2.40;;;15.60;99.90;;;;;;5014221;28;20533;-70
2023/05/06 02:48:26;;;;;;;2.87;2.37;;;15.70;99.90;;;;;;5013886;28;20165;-71
2023/05/06 02:50:52;;;;;;;2.80;2.40;;;15.70;99.90;;;;;;5014023;28;20221;-70
2023/05/06 02:53:18;;;;;;;3.40;2.43;;;15.80;99.90;;;;;;5014511;28;20242;-71
2023/05/06 02:55:43;;;;;;;4.47;2.53;;;15.70;99.90;;;;;;5014193;28;20255;-70
2023/05/06 02:58:09;;;;;;;2.90;2.57;;;15.60;99.90;;;;;;5013941;28;20165;-70
2023/05/06 03:00:35;;;;;;;6.40;3.40;;;15.60;99.90;;;;;;5013628;28;20170;-71
2023/05/06 03:03:00;;;;;;;3.40;3.10;;;15.70;99.90;;;;;;5014037;28;20197;-71
2023/05/06 03:05:26;;;;;;;4.10;2.77;;;15.60;99.90;;;;;;5014475;28;20404;-71
2023/05/06 03:07:51;;;;;;;3.17;2.50;;;15.60;99.90;;;;;;5013834;28;20175;-70
2023/05/06 03:10:17;;;;;;;7.73;2.83;;;15.60;99.90;;;;;;5013720;28;20708;-70
2023/05/06 03:12:43;;;;;;;3.40;2.70;;;15.50;99.90;;;;;;5013636;28;20197;-71
2023/05/06 03:15:08;;;;;;;3.80;2.83;;;15.60;99.90;;;;;;5013089;28;20217;-70
2023/05/06 03:17:34;;;;;;;5.80;3.77;;;15.60;99.90;;;;;;5013950;28;20257;-71
2023/05/06 03:20:00;;;;;;;4.50;4.10;;;15.70;99.90;;;;;;5013671;28;20416;-71
2023/05/06 03:22:26;;;;;;;9.40;3.13;;;15.60;99.90;;;;;;5013611;28;20445;-71
2023/05/06 03:24:51;;;;;;;6.23;4.17;;;15.50;99.90;;;;;;5013728;28;20625;-72
2023/05/06 03:27:17;;;;;;;3.07;2.80;;;15.50;99.90;;;;;;5013780;28;20165;-72
2023/05/06 03:29:42;;;;;;;3.43;3.13;;;15.60;99.90;;;;;;5012953;28;20224;-71
2023/05/06 03:32:08;;;;;;;3.90;3.27;;;15.60;99.90;;;;;;5013585;28;20194;-72
2023/05/06 03:34:33;;;;;;;5.47;4.20;;;15.70;99.90;;;;;;5013695;28;20190;-72
2023/05/06 03:36:59;;;;;;;3.37;3.10;;;15.60;99.90;;;;;;5013501;28;20211;-71
2023/05/06 03:39:24;;;;;;;4.07;3.73;;;15.60;99.90;;;;;;5013431;28;20183;-71
2023/05/06 03:41:50;;;;;;;4.30;3.90;;;15.50;99.90;;;;;;5013210;28;20691;-71
2023/05/06 03:44:16;;;;;;;4.07;3.77;;;15.40;99.90;;;;;;5012008;28;20722;-72
2023/05/06 03:46:41;;;;;;;4.53;4.03;;;15.50;99.90;;;;;;5013504;28;20554;-71
2023/05/06 03:49:07;;;;;;;4.83;4.37;;;15.50;99.90;;;;;;5013137;28;20636;-70
2023/05/06 03:51:34;;;;;;;5.30;4.00;;;15.40;99.90;;;;;;5013149;28;20194;-71
2023/05/06 03:54:00;;;;;;;6.07;4.37;;;15.40;99.90;;;;;;5013117;28;20187;-70
2023/05/06 03:56:25;;;;;;;5.30;4.80;;;15.30;99.90;;;;;;5013266;28;20410;-71
2023/05/06 03:58:52;;;;;;;4.30;3.60;;;15.30;99.90;;;;;;4995119;28;20182;-70
2023/05/06 04:01:18;;;;;;;3.90;3.60;;;15.20;99.90;;;;;;5012938;28;20630;-71
2023/05/06 04:03:43;;;;;;;4.73;4.17;;;15.00;99.90;;;;;;5013131;28;20494;-70
2023/05/06 04:06:09;;;;;;;4.40;4.00;;;14.90;99.90;;;;;;5013173;28;20572;-70
2023/05/06 04:08:35;;;;;;;5.07;4.57;;;15.00;99.90;;;;;;5013461;28;20233;-71
2023/05/06 04:11:07;;;;;;;6.10;4.60;;;15.00;99.90;;;;;;5008208;28;20202;-71
2023/05/06 04:13:33;;;;;;;4.47;4.03;;;14.90;99.90;;;;;;5013077;28;20189;-71
2023/05/06 04:15:59;;;;;;;4.87;4.43;;;14.80;99.90;;;;;;5012780;28;20462;-71
2023/05/06 04:18:24;;;;;;;4.20;3.80;;;14.80;99.90;;;;;;5013323;28;20811;-71
2023/05/06 04:20:50;;;;;;;6.90;4.43;;;14.80;99.90;;;;;;5016354;28;20218;-71
2023/05/06 04:23:16;;;;;;;3.40;2.90;;;14.70;99.90;;;;;;5016631;28;20206;-70
2023/05/06 04:25:47;;;;;;;14.53;4.37;;;14.60;99.90;;;;;;5016276;28;20172;-70
2023/05/06 04:28:13;;;;;;;10.23;4.63;;;14.70;99.90;;;;;;5016517;28;20173;-70
2023/05/06 04:30:40;;;;;;;4.63;3.23;;;14.70;99.90;;;;;;5014537;28;20477;-71
2023/05/06 04:33:06;;;;;;;3.53;3.23;;;14.70;99.90;;;;;;4989021;28;21360;-71
2023/05/06 04:35:32;;;;;;;4.03;3.17;;;14.60;99.90;;;;;;5007325;28;20418;-71
2023/05/06 04:37:58;;;;;;;4.80;4.40;;;14.60;99.90;;;;;;5007208;28;20488;-69
2023/05/06 04:40:25;;;;;;;8.60;4.13;;;14.60;99.90;;;;;;5012906;28;20410;-72
2023/05/06 04:42:51;;;;;;;5.10;3.37;;;14.60;99.90;;;;;;4985845;28;20563;-72
2023/05/06 04:45:16;;;;;;;3.73;3.43;;;14.60;99.90;;;;;;5016334;28;20425;-71
2023/05/06 04:47:42;;;;;;;7.73;3.73;;;14.60;99.90;;;;;;5016465;28;20162;-71
2023/05/06 04:50:11;;;;;;;4.03;3.03;;;14.50;99.90;;;;;;5018957;28;20972;-70
2023/05/06 04:52:37;;;;;;;4.67;3.50;;;14.60;99.90;;;;;;4994301;28;20220;-70
2023/05/06 04:55:03;;;;;;;4.20;3.80;;;14.50;99.90;;;;;;4996922;28;20900;-70
2023/05/06 04:57:30;;;;;;;3.63;3.23;;;14.50;99.90;;;;;;4997563;28;20683;-71
2023/05/06 04:59:56;;;;;;;5.00;4.10;;;14.60;99.90;;;;;;4996135;28;20903;-70
2023/05/06 05:02:21;;;;;;;3.40;3.10;;;14.60;99.90;;;;;;4996330;28;20511;-70
2023/05/06 05:04:47;;;;;;;3.47;3.17;;;14.50;99.90;;;;;;4997064;28;20175;-70
2023/05/06 05:07:12;;;;;;;4.03;3.27;;;14.60;99.90;;;;;;4996685;28;20172;-70
2023/05/06 05:09:38;;;;;;;7.20;2.93;;;14.60;99.90;;;;;;4996903;28;20184;-70
2023/05/06 05:12:04;;;;;;;8.73;4.07;;;14.70;99.90;;;;;;4996551;28;20229;-71
2023/05/06 05:14:29;;;;;;;3.90;3.30;;;14.70;99.90;;;;;;5010147;28;20189;-71
2023/05/06 05:16:55;;;;;;;4.73;3.17;;;14.80;99.90;;;;;;5015860;28;20233;-71
2023/05/06 05:19:21;;;;;;;4.80;3.40;;;14.90;99.90;;;;;;5015787;28;20175;-71
2023/05/06 05:21:47;;;;;;;3.77;3.27;;;14.80;99.90;;;;;;5015816;28;20194;-71
2023/05/06 05:24:12;;;;;;;3.80;3.30;;;14.80;99.90;;;;;;5015909;28;20708;-71
2023/05/06 05:26:38;;;;;;;4.20;2.70;;;14.90;99.90;;;;;;5015626;28;20423;-71
2023/05/06 05:29:03;;;;;;;3.17;2.87;;;15.00;99.90;;;;;;5015501;28;20184;-70
2023/05/06 05:31:30;;;;;;;4.87;3.33;;;15.10;99.90;;;;;;5015586;28;20216;-71
2023/05/06 05:33:56;;;;;;;3.63;2.90;;;15.10;99.90;;;;;;5015805;28;20612;-71
2023/05/06 05:36:22;;;;;;;3.37;3.07;;;15.20;99.90;;;;;;5015964;28;20501;-70
2023/05/06 05:38:48;;;;;;;3.57;2.97;;;15.30;99.90;;;;;;5015569;28;20421;-71
2023/05/06 05:41:13;;;;;;;4.23;3.83;;;15.60;99.90;;;;;;5015272;28;20580;-70
2023/05/06 05:43:39;;;;;;;6.10;4.03;;;15.70;99.90;;;;;;5013603;28;20545;-71
2023/05/06 05:46:05;;;;;;;3.80;3.50;;;15.80;99.90;;;;;;5015039;28;20215;-71
2023/05/06 05:48:31;;;;;;;4.00;3.60;;;15.90;99.90;;;;;;5015332;28;20572;-71
2023/05/06 05:50:57;;;;;;;3.67;3.37;;;16.00;99.90;;;;;;4997482;28;20629;-70
2023/05/06 05:53:23;;;;;;;4.00;3.50;;;16.10;99.90;;;;;;5015325;28;20479;-70
2023/05/06 05:55:48;;;;;;;4.37;3.60;;;16.20;99.90;;;;;;5015301;28;20429;-70
2023/05/06 05:58:14;;;;;;;3.40;3.10;;;16.30;99.90;;;;;;5014739;28;20189;-70
2023/05/06 06:00:40;;;;;;;3.80;3.50;;;16.40;99.90;;;;;;5014916;28;20685;-71
2023/05/06 06:03:05;;;;;;;3.03;2.80;;;16.60;99.90;;;;;;5014688;28;20211;-70
2023/05/06 06:05:31;;;;;;;4.23;3.07;;;16.80;99.90;;;;;;5014902;28;20222;-70
2023/05/06 06:07:57;;;;;;;3.87;3.23;;;17.00;99.90;;;;;;5014867;28;20199;-71
2023/05/06 06:10:23;;;;;;;5.67;2.80;;;17.10;99.90;;;;;;5014874;28;20176;-70
2023/05/06 06:12:48;;;;;;;4.13;3.67;;;17.20;99.90;;;;;;5016036;28;20422;-70
2023/05/06 06:15:14;;;;;;;3.93;3.53;;;17.40;99.90;;;;;;5014226;28;20171;-70
2023/05/06 06:17:40;;;;;;;3.67;2.77;;;17.50;99.90;;;;;;5014872;28;20229;-71
2023/05/06 06:20:06;;;;;;;3.03;2.63;;;17.50;99.90;;;;;;5014892;28;20570;-71
2023/05/06 06:22:32;;;;;;;3.97;3.40;;;17.60;99.90;;;;;;5014526;28;20470;-71
2023/05/06 06:24:57;;;;;;;5.63;3.23;;;17.80;99.90;;;;;;5014682;28;20824;-70
2023/05/06 06:27:23;;;;;;;3.10;2.90;;;17.90;99.90;;;;;;5014865;28;20194;-71
2023/05/06 06:29:49;;;;;;;2.97;2.77;;;18.00;99.90;;;;;;4996470;28;20225;-71
2023/05/06 06:32:15;;;;;;;3.37;2.87;;;18.00;99.90;;;;;;5014689;28;20658;-71
2023/05/06 06:34:40;;;;;;;2.73;2.50;;;18.10;99.90;;;;;;5014005;28;20744;-70
2023/05/06 06:37:09;;;;;;;3.07;2.77;;;18.00;99.90;;;;;;5014359;28;20415;-71
2023/05/06 06:39:35;;;;;;;2.73;2.53;;;17.80;99.90;;;;;;4996937;28;20647;-71
2023/05/06 06:42:05;;;;;;;2.60;2.40;;;18.00;99.90;;;;;;4994304;28;20427;-71
2023/05/06 06:44:32;;;;;;;5.10;2.60;;;18.10;99.90;;;;;;5006549;28;20208;-71
2023/05/06 06:46:58;;;;;;;5.73;3.20;;;18.40;99.90;;;;;;4998682;28;20455;-71
2023/05/06 06:49:26;;;;;;;2.80;2.40;;;18.60;99.90;;;;;;4995103;28;20451;-71
2023/05/06 06:51:51;;;;;;;4.00;2.93;;;18.70;99.90;;;;;;5014158;28;20199;-70
2023/05/06 06:54:17;;;;;;;2.67;2.00;;;18.60;99.90;;;;;;5014339;28;20901;-71
2023/05/06 06:56:42;;;;;;;4.33;2.57;;;18.40;99.90;;;;;;5014006;28;20179;-72
2023/05/06 06:59:08;;;;;;;3.57;2.07;;;18.00;99.90;;;;;;5013400;28;20170;-71
2023/05/06 07:01:33;;;;;;;2.20;2.00;;;17.80;99.90;;;;;;5039612;23;20194;-73
2023/05/06 07:03:59;;;;;;;2.17;1.73;;;17.80;99.90;;;;;;5053475;28;20277;-75
2023/05/06 07:06:25;;;;;;;2.97;1.53;;;18.00;99.90;;;;;;5053250;28;20250;-75
2023/05/06 07:08:50;;;;;;;1.77;1.60;;;18.20;99.90;;;;;;5053372;28;20521;-74
2023/05/06 07:11:16;;;;;;;5.17;1.77;;;17.70;99.90;;;;;;5035435;28;20692;-74
2023/05/06 07:13:41;;;;;;;1.60;1.37;;;17.50;99.90;;;;;;5053473;28;20470;-73
2023/05/06 07:16:07;;;;;;;2.03;1.83;;;17.50;99.90;;;;;;5035751;28;20174;-74
2023/05/06 07:18:32;;;;;;;2.17;1.60;;;18.10;99.90;;;;;;5054963;28;20551;-74
2023/05/06 07:20:58;;;;;;;1.80;1.57;;;18.20;99.90;;;;;;5055286;28;20255;-75
2023/05/06 07:23:23;;;;;;;2.07;1.07;;;18.00;99.90;;;;;;5055235;28;20617;-74
2023/05/06 07:25:49;;;;;;;1.83;1.50;;;17.80;99.90;;;;;;5053891;28;20544;-75
2023/05/06 07:28:15;;;;;;;2.83;1.83;;;17.80;99.90;;;;;;5053362;28;20171;-75
2023/05/06 07:30:40;;;;;;;1.80;1.50;;;17.80;99.90;;;;;;5034876;28;20162;-75
2023/05/06 07:33:06;;;;;;;4.13;1.70;;;17.90;99.90;;;;;;5035336;28;20204;-75
2023/05/06 07:35:32;;;;;;;3.57;2.73;;;18.10;99.90;;;;;;5035410;28;20186;-75
2023/05/06 07:37:57;;;;;;;2.73;1.70;;;18.10;99.90;;;;;;5035074;28;20179;-74
2023/05/06 07:40:23;;;;;;;1.40;1.30;;;18.20;99.90;;;;;;5034777;28;20175;-73
2023/05/06 07:42:48;;;;;;;3.20;1.57;;;18.30;99.90;;;;;;5034746;28;20198;-74
2023/05/06 07:45:14;;;;;;;2.03;1.67;;;17.90;99.90;;;;;;5033493;28;20235;-75
2023/05/06 07:47:40;;;;;;;4.23;2.30;;;17.90;99.90;;;;;;5053556;28;20170;-74
2023/05/06 07:50:07;;;;;;;2.63;1.93;;;18.00;99.90;;;;;;5052623;28;20275;-74
2023/05/06 07:52:33;;;;;;;2.90;1.90;;;18.20;99.90;;;;;;5052483;28;20179;-75
2023/05/06 07:54:58;;;;;;;2.00;1.43;;;18.60;99.90;;;;;;5054817;28;20866;-74
2023/05/06 07:57:24;;;;;;;1.53;1.43;;;19.00;99.90;;;;;;5057018;28;20410;-74
2023/05/06 07:59:51;;;;;;;3.37;1.90;;;18.90;99.90;;;;;;5056507;28;20181;-74
2023/05/06 08:02:17;;;;;;;3.37;1.40;;;18.80;99.90;;;;;;5038907;28;20217;-74
2023/05/06 08:04:43;;;;;;;3.37;1.40;;;19.20;99.90;;;;;;5056452;28;20487;-74
2023/05/06 08:07:09;;;;;;;2.20;2.00;;;19.40;99.90;;;;;;5056790;28;20405;-73
2023/05/06 08:09:35;;;;;;;3.63;1.57;;;18.90;99.90;;;;;;5056868;28;20811;-74
2023/05/06 08:12:01;;;;;;;1.77;1.67;;;19.00;99.90;;;;;;5038858;28;20461;-73
2023/05/06 08:14:27;;;;;;;3.07;1.30;;;19.20;99.90;;;;;;5056313;28;20182;-74
2023/05/06 08:16:53;;;;;;;4.57;2.10;;;19.40;99.90;;;;;;5056294;28;20412;-73
2023/05/06 08:19:18;;;;;;;2.30;2.10;;;18.80;99.90;;;;;;5056347;28;20201;-74
2023/05/06 08:21:44;;;;;;;2.17;1.90;;;18.50;99.90;;;;;;5056386;28;20425;-75
2023/05/06 08:24:12;;;;;;;1.87;1.70;;;18.40;99.90;;;;;;5038248;28;20269;-75
2023/05/06 08:26:38;;;;;;;2.60;1.60;;;18.50;99.90;;;;;;5056351;28;20170;-75
2023/05/06 08:29:03;;;;;;;2.07;1.70;;;18.80;99.90;;;;;;5055194;28;20425;-75
2023/05/06 08:31:29;;;;;;;2.27;1.60;;;19.20;99.90;;;;;;5043683;28;20179;-75
2023/05/06 08:33:55;;;;;;;3.47;1.77;;;19.30;99.90;;;;;;5018428;28;20171;-73
2023/05/06 08:36:21;;;;;;;2.43;1.70;;;19.30;99.90;;;;;;5018259;28;20767;-73
2023/05/06 08:38:49;;;;;;;1.97;1.50;;;19.80;99.90;;;;;;5036002;28;20175;-76
2023/05/06 08:41:18;;;;;;;1.87;1.50;;;20.00;99.90;;;;;;5036373;28;20412;-74
2023/05/06 08:43:46;;;;;;;3.50;1.40;;;20.10;99.90;;;;;;5024129;28;20805;-73
2023/05/06 08:46:13;;;;;;;4.40;1.70;;;20.10;99.90;;;;;;5056516;28;20872;-74
2023/05/06 08:48:38;;;;;;;3.03;2.10;;;19.90;99.90;;;;;;5055764;28;20405;-73
2023/05/06 08:51:04;;;;;;;4.20;1.80;;;19.90;99.90;;;;;;5054444;28;20432;-74
2023/05/06 08:53:32;;;;;;;5.23;2.10;;;20.00;99.90;;;;;;5037679;28;20749;-74
2023/05/06 08:56:05;;;;;;;4.60;1.60;;;20.20;99.90;;;;;;5055700;28;20420;-74
2023/05/06 08:58:36;;;;;;;2.00;1.47;;;20.40;99.90;;;;;;5056003;28;20389;-74
2023/05/06 09:01:03;;;;;;;3.23;1.77;;;20.50;99.90;;;;;;5055171;28;20409;-73
2023/05/06 09:03:28;;;;;;;3.23;2.00;;;20.70;99.90;;;;;;5055639;28;20808;-73
2023/05/06 09:05:55;;;;;;;2.47;1.50;;;20.80;99.90;;;;;;5055658;28;20404;-73
2023/05/06 09:08:21;;;;;;;2.17;1.30;;;21.00;99.90;;;;;;5037500;28;20175;-73
2023/05/06 09:10:46;;;;;;;2.57;1.80;;;21.30;99.90;;;;;;5055749;28;20778;-73
2023/05/06 09:13:14;;;;;;;4.70;2.37;;;20.90;99.90;;;;;;5037143;28;20618;-73
2023/05/06 09:15:46;;;;;;;1.80;1.70;;;20.50;99.90;;;;;;5054861;28;20540;-74
2023/05/06 09:18:12;;;;;;;2.17;1.93;;;20.60;99.90;;;;;;5055090;28;20424;-76
2023/05/06 09:20:46;;;;;;;1.70;1.60;;;20.60;99.90;;;;;;5055673;28;20930;-76
2023/05/06 09:23:14;;;;;;;2.97;1.60;;;20.70;99.90;;;;;;5055134;28;20468;-75
2023/05/06 09:25:41;;;;;;;2.47;1.80;;;19.90;99.90;;;;;;5055259;28;20408;-75
2023/05/06 09:28:11;;;;;;;2.17;1.90;;;19.70;99.90;;;;;;5054892;28;20974;-75
2023/05/06 09:30:41;;;;;;;2.57;1.77;;;19.90;99.90;;;;;;5054519;28;20416;-75
2023/05/06 09:33:07;;;;;;;2.80;1.97;;;20.10;99.90;;;;;;5054741;28;20433;-75
2023/05/06 09:35:41;;;;;;;1.87;1.63;;;20.10;99.90;;;;;;5055497;28;20440;-75
2023/05/06 09:38:08;;;;;;;3.47;2.00;;;20.40;99.90;;;;;;5055227;28;20409;-75
2023/05/06 09:40:37;;;;;;;2.53;2.30;;;20.50;99.90;;;;;;5037786;28;20454;-75
2023/05/06 09:43:04;;;;;;;2.13;1.93;;;20.90;99.90;;;;;;5054991;28;20452;-74
2023/05/06 09:45:30;;;;;;;2.00;1.80;;;21.30;99.90;;;;;;5054760;28;20417;-75
2023/05/06 09:47:56;;;;;;;3.10;1.50;;;21.10;99.90;;;;;;5054807;28;20416;-75
2023/05/06 09:50:23;;;;;;;2.00;1.80;;;21.40;99.90;;;;;;5054765;28;20171;-73
2023/05/06 09:52:50;;;;;;;1.40;1.30;;;21.60;99.90;;;;;;5054418;28;20433;-74
2023/05/06 09:55:20;;;;;;;2.77;1.40;;;21.50;99.90;;;;;;5054831;28;20405;-73
2023/05/06 09:57:47;;;;;;;3.47;2.20;;;21.30;99.90;;;;;;5054566;28;20499;-73
2023/05/06 10:00:14;;;;;;;1.87;1.50;;;21.60;99.90;;;;;;5053949;28;20421;-73
2023/05/06 10:02:40;;;;;;;3.93;1.50;;;21.60;99.90;;;;;;5054153;28;20461;-74
2023/05/06 10:05:07;;;;;;;2.53;1.80;;;22.00;99.90;;;;;;5054380;28;20428;-74
2023/05/06 10:07:34;;;;;;;1.80;1.40;;;22.20;99.90;;;;;;5054232;28;20212;-74
2023/05/06 10:10:00;;;;;;;2.60;1.80;;;21.80;99.90;;;;;;5053767;28;20899;-74
2023/05/06 10:12:27;;;;;;;2.30;2.03;;;21.00;99.90;;;;;;5054174;28;20456;-74
2023/05/06 10:14:53;;;;;;;3.33;2.13;;;20.50;99.90;;;;;;5035927;28;20417;-72
2023/05/06 10:17:24;;;;;;;3.07;1.97;;;20.30;99.90;;;;;;5053316;28;20781;-74
2023/05/06 10:19:54;;;;;;;2.17;1.80;;;20.60;99.90;;;;;;5054297;28;20596;-74
2023/05/06 10:22:48;;;;;;;1.97;1.77;;;21.00;99.90;;;;;;5035860;28;20437;-74
2023/05/06 10:25:37;;;;;;;1.80;1.67;;;20.80;99.90;;;;;;5045538;28;20448;-73
2023/05/06 10:28:10;;;;;;;2.10;1.90;;;21.20;99.90;;;;;;5034557;28;20475;-74
2023/05/06 10:30:37;;;;;;;1.60;1.50;;;21.40;99.90;;;;;;5033934;28;20766;-74
2023/05/06 10:33:04;;;;;;;1.90;1.80;;;21.50;99.90;;;;;;5034603;28;20761;-74
2023/05/06 10:35:56;;;;;;;4.60;1.60;;;21.90;99.90;;;;;;5053638;28;20401;-74
2023/05/06 10:38:42;;;;;;;2.07;1.87;;;22.10;99.90;;;;;;5036552;28;20471;-74
2023/05/06 10:41:09;;;;;;;2.20;2.10;;;22.20;99.90;;;;;;5054567;28;20883;-73
2023/05/06 10:43:40;;;;;;;3.30;2.40;;;21.60;99.90;;;;;;5053682;28;20549;-76
2023/05/06 10:46:08;;;;;;;2.40;2.20;;;21.60;99.90;;;;;;5054438;28;20393;-73
2023/05/06 10:49:12;;;;;;;2.73;2.23;;;21.70;99.90;;;;;;5055217;28;20463;-74
2023/05/06 10:51:39;;;;;;;1.60;1.50;;;22.10;99.90;;;;;;5051538;28;20443;-73
2023/05/06 10:54:06;;;;;;;5.77;1.90;;;22.60;99.90;;;;;;5036406;28;20845;-73
2023/05/06 10:56:34;;;;;;;1.57;1.30;;;23.30;99.70;;;;;;5053434;28;20409;-74
2023/05/06 10:59:06;;;;;;;2.87;1.60;;;23.70;98.90;;;;;;5053550;28;20413;-72
2023/05/06 11:01:34;;;;;;;3.30;2.20;;;24.70;98.20;;;;;;5053604;28;20393;-75
2023/05/06 11:04:09;;;;;;;2.70;1.73;;;24.70;96.20;;;;;;5053460;28;20429;-73
2023/05/06 11:06:49;;;;;;;2.20;2.00;;;25.40;97.00;;;;;;5053813;28;20393;-74
2023/05/06 11:09:17;;;;;;;1.83;1.60;;;25.60;94.70;;;;;;5035830;28;20829;-73
2023/05/06 11:12:03;;;;;;;2.30;2.10;;;25.20;95.60;;;;;;5053287;28;20950;-73
2023/05/06 11:14:36;;;;;;;4.20;2.00;;;24.40;96.50;;;;;;5052851;28;20507;-73
2023/05/06 11:17:06;;;;;;;3.27;2.57;;;23.10;97.20;;;;;;5053691;28;20393;-74
2023/05/06 11:19:34;;;;;;;2.00;1.80;;;23.90;97.10;;;;;;5053207;28;20775;-74
2023/05/06 11:22:02;;;;;;;2.60;2.20;;;25.10;95.30;;;;;;5053655;28;20425;-73
2023/05/06 11:24:39;;;;;;;2.83;1.80;;;25.80;95.00;;;;;;5053444;28;20456;-74
2023/05/06 11:27:04;;;;;;;2.40;1.63;;;26.30;92.90;;;;;;5053031;28;20431;-74
2023/05/06 11:29:36;;;;;;;2.97;1.53;;;26.60;92.10;;;;;;5051594;28;20435;-73
2023/05/06 11:32:04;;;;;;;2.60;1.40;;;27.60;92.00;;;;;;5053128;28;20187;-74
2023/05/06 11:34:31;;;;;;;2.70;1.73;;;29.50;84.50;;;;;;5053567;28;20413;-75
2023/05/06 11:36:59;;;;;;;2.83;1.40;;;29.00;84.00;;;;;;5053178;28;20420;-74
2023/05/06 11:39:31;;;;;;;2.57;1.70;;;29.60;79.60;;;;;;5053095;28;20401;-74
2023/05/06 11:41:59;;;;;;;1.63;1.50;;;30.60;75.30;;;;;;5052624;28;20487;-74
2023/05/06 11:44:35;;;;;;;2.23;1.60;;;30.10;76.30;;;;;;5051388;28;20499;-74
2023/05/06 11:47:04;;;;;;;3.23;1.80;;;29.50;77.20;;;;;;5053159;28;20382;-74
2023/05/06 11:49:39;;;;;;;2.50;1.70;;;28.10;79.10;;;;;;5053870;28;20918;-72
2023/05/06 11:52:06;;;;;;;1.90;1.50;;;26.50;81.30;;;;;;5052599;28;20428;-75
2023/05/06 11:54:38;;;;;;;2.20;1.37;;;25.10;86.20;;;;;;5053266;28;20432;-74
2023/05/06 11:57:04;;;;;;;2.00;1.50;;;24.30;88.20;;;;;;5053053;28;20825;-73
2023/05/06 11:59:34;;;;;;;2.07;1.40;;;24.10;89.00;;;;;;5034650;28;20447;-74
2023/05/06 12:02:01;;;;;;;2.70;1.33;;;24.60;90.60;;;;;;5052825;28;20202;-74
2023/05/06 12:04:27;;;;;;;3.37;1.70;;;25.50;90.60;;;;;;5052490;28;20453;-74
2023/05/06 12:06:54;;;;;;;2.60;1.60;;;27.00;85.90;;;;;;5052817;28;20743;-74
2023/05/06 12:09:21;;;;;;;3.27;1.97;;;28.00;83.50;;;;;;5052655;28;20170;-74
2023/05/06 12:11:47;;;;;;;2.37;1.60;;;27.00;82.30;;;;;;5053057;28;20412;-74
2023/05/06 12:14:13;;;;;;;2.20;1.70;;;27.30;82.60;;;;;;5052269;28;20865;-73
2023/05/06 12:16:40;;;;;;;1.70;1.30;;;27.40;81.90;;;;;;5052533;28;20445;-74
2023/05/06 12:19:05;;;;;;;3.43;1.40;;;28.60;79.50;;;;;;5034989;28;20182;-73
2023/05/06 12:21:35;;;;;;;2.13;1.40;;;29.10;73.70;;;;;;5052393;28;20415;-74
2023/05/06 12:24:01;;;;;;;1.83;1.43;;;28.40;77.70;;;;;;5034479;28;20202;-74
2023/05/06 12:26:27;;;;;;;2.40;1.53;;;29.40;72.70;;;;;;5052325;28;20423;-74
2023/05/06 12:29:10;;;;;;;3.10;1.20;;;28.90;70.80;;;;;;5051841;28;20167;-74
2023/05/06 12:31:36;;;;;;;2.10;1.10;;;29.70;70.80;;;;;;5052375;28;20677;-74
2023/05/06 12:34:03;;;;;;;1.47;1.20;;;30.20;68.90;;;;;;5046503;28;20421;-74
2023/05/06 12:36:31;;;;;;;1.43;1.33;;;30.70;68.10;;;;;;5032715;28;20485;-74
2023/05/06 12:39:00;;;;;;;1.70;1.60;;;31.40;66.60;;;;;;5032690;28;20421;-74
2023/05/06 12:41:36;;;;;;;1.93;1.47;;;30.30;67.90;;;;;;5017358;28;20671;-75
2023/05/06 12:44:02;;;;;;;3.00;1.70;;;29.30;69.70;;;;;;5024716;28;20970;-74
2023/05/06 12:46:28;;;;;;;2.80;1.60;;;28.50;72.40;;;;;;5038510;28;20890;-74